Time;durP1;ratioP1;P1;durP2;ratioP2;P2;SDS_P1;SDS_P2;PMS_P1;PMS_P2;Temp;Humidity;BMP_temperature;BMP_pressure;BME280_temperature;BME280_humidity;BME280_pressure;Samples;Min_cycle;Max_cycle;Signal;HPM_P1;HPM_P2
2021/12/01 00:00:59;;;;;;;;;;;;;;;2.24;76.54;97066.52;1565440;91;27782;-65
2021/12/01 00:03:26;;;;;;;;;;;;;;;2.20;76.18;97068.77;1565225;91;25733;-64
2021/12/01 00:05:52;;;;;;;;;;;;;;;2.21;75.33;97074.41;1565404;91;25738;-64
2021/12/01 00:08:18;;;;;;;;;;;;;;;2.25;75.58;97068.11;1565346;91;25802;-64
2021/12/01 00:10:46;;;;;;;;;;;;;;;2.27;74.92;97077.27;1565438;91;25694;-64
2021/12/01 00:13:15;;;;;;;;;;;;;;;2.32;75.84;97081.25;1565445;91;27347;-64
2021/12/01 00:15:42;;;;;;;;;;;;;;;2.34;74.61;97085.81;1565208;91;25488;-64
2021/12/01 00:18:09;;;;;;;;;;;;;;;2.34;74.46;97085.81;1565333;91;25540;-64
2021/12/01 00:20:35;;;;;;;;;;;;;;;2.31;74.82;97075.60;1565420;91;26644;-64
2021/12/01 00:23:03;;;;;;;;;;;;;;;2.30;73.67;97084.79;1565538;91;25610;-64
2021/12/01 00:25:30;;;;;;;;;;;;;;;2.29;73.72;97078.33;1565429;91;27463;-65
2021/12/01 00:27:57;;;;;;;;;;;;;;;2.29;73.50;97091.84;1565358;91;25503;-64
2021/12/01 00:30:24;;;;;;;;;;;;;;;2.29;73.99;97094.02;1565415;91;25646;-63
2021/12/01 00:32:54;;;;;;;;;;;;;;;2.29;74.11;97098.06;1565219;91;25742;-63
2021/12/01 00:35:22;;;;;;;;;;;;;;;2.31;73.23;97105.88;1565283;91;25468;-64
2021/12/01 00:37:48;;;;;;;;;;;;;;;2.34;73.71;97115.56;1565340;91;27642;-64
2021/12/01 00:40:15;;;;;;;;;;;;;;;2.37;74.31;97121.72;1565305;91;25487;-63
2021/12/01 00:42:42;;;;;;;;;;;;;;;2.34;72.99;97122.86;1565407;91;25659;-64
2021/12/01 00:45:18;;;;;;;;;;;;;;;2.36;73.77;97140.94;1565645;91;25797;-63
2021/12/01 00:47:47;;;;;;;;;;;;;;;2.34;73.95;97136.38;1565224;91;25685;-65
2021/12/01 00:50:14;;;;;;;;;;;;;;;2.34;74.40;97150.70;1564731;91;26885;-64
2021/12/01 00:52:40;;;;;;;;;;;;;;;2.33;74.22;97145.59;1565028;91;25678;-65
2021/12/01 00:55:08;;;;;;;;;;;;;;;2.34;75.03;97153.41;1565396;91;25475;-64
2021/12/01 00:57:34;;;;;;;;;;;;;;;2.33;75.45;97162.59;1565284;91;25734;-65
2021/12/01 01:00:01;;;;;;;;;;;;;;;2.31;74.61;97163.46;1565399;91;25740;-64
2021/12/01 01:02:27;;;;;;;;;;;;;;;2.30;73.41;97167.24;1565432;91;27636;-64
2021/12/01 01:04:53;;;;;;;;;;;;;;;2.35;74.08;97171.77;1565313;91;25491;-63
2021/12/01 01:07:19;;;;;;;;;;;;;;;2.38;74.38;97180.09;1565272;91;25671;-64
2021/12/01 01:09:45;;;;;;;;;;;;;;;2.41;72.93;97178.69;1565278;91;25772;-65
2021/12/01 01:17:45;;;;;;;;;;;;;;;2.46;73.10;97202.95;1565363;91;25637;-64
2021/12/01 01:20:12;;;;;;;;;;;;;;;2.44;73.72;97204.33;1565418;90;25672;-64
2021/12/01 01:22:40;;;;;;;;;;;;;;;2.41;73.91;97208.97;1565373;91;27794;-64
2021/12/01 01:25:08;;;;;;;;;;;;;;;2.39;74.29;97213.35;1565413;91;25520;-64
2021/12/01 01:27:34;;;;;;;;;;;;;;;2.34;73.03;97226.41;1565276;91;27435;-64
2021/12/01 01:30:00;;;;;;;;;;;;;;;2.35;73.10;97231.23;1565379;91;25733;-64
2021/12/01 01:32:26;;;;;;;;;;;;;;;2.34;72.59;97235.05;1565401;91;25715;-64
2021/12/01 01:34:53;;;;;;;;;;;;;;;2.36;72.72;97239.05;1565472;91;25904;-64
2021/12/01 01:37:19;;;;;;;;;;;;;;;2.41;73.03;97247.64;1565360;91;25478;-64
2021/12/01 01:39:46;;;;;;;;;;;;;;;2.43;72.57;97256.80;1565389;91;27579;-64
2021/12/01 01:42:12;;;;;;;;;;;;;;;2.45;72.85;97270.84;1565260;91;25681;-64
2021/12/01 01:44:38;;;;;;;;;;;;;;;2.44;72.10;97275.44;1565276;91;25773;-64
2021/12/01 01:47:04;;;;;;;;;;;;;;;2.40;72.15;97269.56;1565238;91;25769;-64
2021/12/01 01:49:49;;;;;;;;;;;;;;;2.36;72.92;97277.47;1565321;91;25532;-63
2021/12/01 01:52:02;;;;;;;;;;;;;;;2.31;73.51;97287.81;1564333;90;27085;-64
2021/12/01 01:54:27;;;;;;;;;;;;;;;2.24;73.25;97293.58;1565292;91;25681;-64
2021/12/01 01:56:53;;;;;;;;;;;;;;;2.25;73.83;97299.80;1565351;91;25721;-63
2021/12/01 01:59:19;;;;;;;;;;;;;;;2.22;74.71;97302.52;1565276;91;27978;-64
2021/12/01 02:01:46;;;;;;;;;;;;;;;2.20;75.41;97310.13;1565342;91;25509;-64
2021/12/01 02:04:15;;;;;;;;;;;;;;;2.11;75.62;97305.13;1565260;91;27371;-63
2021/12/01 02:06:46;;;;;;;;;;;;;;;2.08;75.87;97316.52;1565198;91;25765;-64
2021/12/01 02:09:10;;;;;;;;;;;;;;;2.02;75.58;97328.48;1565440;90;25560;-64
2021/12/01 02:11:37;;;;;;;;;;;;;;;1.99;75.32;97313.66;1565600;91;25791;-65
2021/12/01 02:14:04;;;;;;;;;;;;;;;2.01;74.26;97327.67;1565489;91;25430;-64
2021/12/01 02:16:30;;;;;;;;;;;;;;;2.08;74.57;97326.78;1565322;91;27411;-64
2021/12/01 02:18:56;;;;;;;;;;;;;;;2.11;74.85;97328.91;1565264;91;27254;-64
2021/12/01 02:21:28;;;;;;;;;;;;;;;2.12;74.63;97332.39;1565378;91;25475;-65
2021/12/01 02:23:58;;;;;;;;;;;;;;;2.11;74.76;97330.80;1565421;91;25775;-64
2021/12/01 02:26:25;;;;;;;;;;;;;;;2.10;75.02;97329.20;1565445;91;25683;-64
2021/12/01 02:28:54;;;;;;;;;;;;;;;2.09;75.14;97337.84;1565756;91;28276;-65
2021/12/01 02:31:21;;;;;;;;;;;;;;;2.07;74.87;97340.59;1565189;91;25492;-64
2021/12/01 02:33:47;;;;;;;;;;;;;;;2.05;75.04;97343.58;1567350;91;25891;-64
2021/12/01 02:36:15;;;;;;;;;;;;;;;2.04;75.26;97347.92;1572504;91;25852;-64
2021/12/01 02:38:44;;;;;;;;;;;;;;;2.06;75.68;97361.39;1572895;91;25721;-64
2021/12/01 02:41:10;;;;;;;;;;;;;;;2.09;75.74;97355.41;1572793;91;28150;-65
2021/12/01 02:43:37;;;;;;;;;;;;;;;2.11;75.72;97361.88;1572623;91;26087;-65
2021/12/01 02:46:03;;;;;;;;;;;;;;;2.14;75.54;97372.11;1572751;91;25535;-65
2021/12/01 02:48:30;;;;;;;;;;;;;;;2.12;75.34;97366.18;1572535;91;25880;-64
2021/12/01 02:50:56;;;;;;;;;;;;;;;2.13;75.33;97382.11;1573054;91;25661;-65
2021/12/01 02:53:23;;;;;;;;;;;;;;;2.10;75.58;97382.69;1572532;91;27468;-64
2021/12/01 02:55:53;;;;;;;;;;;;;;;2.08;75.67;97387.59;1572524;91;25622;-65
2021/12/01 02:58:20;;;;;;;;;;;;;;;2.05;75.68;97394.11;1571648;91;25695;-64
2021/12/01 03:00:47;;;;;;;;;;;;;;;2.04;75.90;97400.62;1572503;91;25802;-64
2021/12/01 03:03:14;;;;;;;;;;;;;;;2.04;75.83;97406.02;1572756;91;25657;-64
2021/12/01 03:05:41;;;;;;;;;;;;;;;1.98;76.25;97406.07;1572836;91;27419;-65
2021/12/01 03:08:07;;;;;;;;;;;;;;;1.97;76.43;97419.33;1572388;91;25680;-64
2021/12/01 03:10:34;;;;;;;;;;;;;;;1.97;76.01;97421.22;1572813;91;25524;-65
2021/12/01 03:13:00;;;;;;;;;;;;;;;1.99;76.19;97419.83;1572548;91;27838;-64
2021/12/01 03:15:26;;;;;;;;;;;;;;;2.02;76.25;97417.66;1572791;91;25702;-64
2021/12/01 03:17:52;;;;;;;;;;;;;;;2.04;76.14;97422.23;1572660;91;27505;-64
2021/12/01 03:20:22;;;;;;;;;;;;;;;2.04;76.30;97423.02;1572551;91;25997;-65
2021/12/01 03:22:46;;;;;;;;;;;;;;;2.05;76.19;97434.11;1572315;91;25645;-64
2021/12/01 03:25:14;;;;;;;;;;;;;;;2.00;76.23;97434.97;1572546;91;25781;-65
2021/12/01 03:27:41;;;;;;;;;;;;;;;1.99;75.93;97429.86;1572855;91;25681;-64
2021/12/01 03:30:09;;;;;;;;;;;;;;;1.96;76.05;97436.61;1572687;91;29721;-64
2021/12/01 03:32:35;;;;;;;;;;;;;;;1.96;76.36;97443.94;1572891;91;25774;-64
2021/12/01 03:35:07;;;;;;;;;;;;;;;1.94;76.25;97447.46;1572662;91;25685;-65
2021/12/01 03:37:34;;;;;;;;;;;;;;;1.91;76.33;97442.09;1572586;91;27950;-65
2021/12/01 03:40:00;;;;;;;;;;;;;;;1.92;76.36;97445.05;1572726;91;25670;-64
2021/12/01 03:42:27;;;;;;;;;;;;;;;1.95;76.49;97443.13;1572844;91;28094;-64
2021/12/01 03:44:55;;;;;;;;;;;;;;;1.97;76.37;97439.59;1572536;91;25776;-64
2021/12/01 03:47:22;;;;;;;;;;;;;;;2.00;76.21;97447.66;1572657;91;25539;-64
2021/12/01 03:49:48;;;;;;;;;;;;;;;2.05;76.35;97448.97;1572638;91;25795;-65
2021/12/01 03:52:16;;;;;;;;;;;;;;;2.05;76.59;97448.16;1572843;91;25710;-64
2021/12/01 03:54:45;;;;;;;;;;;;;;;2.02;76.33;97443.33;1572664;91;27039;-64
2021/12/01 03:57:11;;;;;;;;;;;;;;;1.96;76.43;97435.27;1572463;91;25521;-64
2021/12/01 03:59:37;;;;;;;;;;;;;;;1.92;76.70;97442.88;1572732;91;25467;-65
2021/12/01 04:02:04;;;;;;;;;;;;;;;1.87;76.76;97443.20;1572682;91;27940;-65
2021/12/01 04:04:30;;;;;;;;;;;;;;;1.83;76.88;97441.36;1572806;91;25544;-64
2021/12/01 04:06:56;;;;;;;;;;;;;;;1.79;76.89;97443.84;1572620;91;27519;-65
2021/12/01 04:09:22;;;;;;;;;;;;;;;1.76;76.83;97433.61;1572638;91;25527;-64
2021/12/01 04:11:48;;;;;;;;;;;;;;;1.68;77.00;97432.33;1572703;91;25475;-64
2021/12/01 04:14:14;;;;;;;;;;;;;;;1.60;76.82;97436.45;1572576;91;25820;-64
2021/12/01 04:16:40;;;;;;;;;;;;;;;1.55;76.80;97443.24;1572699;91;25710;-64
2021/12/01 04:19:06;;;;;;;;;;;;;;;1.49;76.91;97445.73;1572695;91;29628;-64
2021/12/01 04:21:32;;;;;;;;;;;;;;;1.47;76.71;97450.63;1572933;91;25725;-65
2021/12/01 04:23:58;;;;;;;;;;;;;;;1.46;76.66;97451.16;1572598;91;25524;-65
2021/12/01 04:26:27;;;;;;;;;;;;;;;1.48;76.49;97457.63;1572929;91;25660;-65
2021/12/01 04:28:54;;;;;;;;;;;;;;;1.48;76.48;97462.49;1572762;91;25510;-64
2021/12/01 04:31:20;;;;;;;;;;;;;;;1.49;76.45;97465.45;1572696;91;28534;-64
2021/12/01 04:33:47;;;;;;;;;;;;;;;1.49;76.40;97462.74;1572568;91;25984;-64
2021/12/01 04:36:16;;;;;;;;;;;;;;;1.47;76.61;97463.56;1565705;91;25743;-64
2021/12/01 04:38:42;;;;;;;;;;;;;;;1.43;76.65;97463.06;1565585;91;25904;-64
2021/12/01 04:41:09;;;;;;;;;;;;;;;1.40;77.12;97459.58;1565427;91;25682;-64
2021/12/01 04:43:37;;;;;;;;;;;;;;;1.40;77.21;97454.99;1565325;91;27505;-64
2021/12/01 04:46:04;;;;;;;;;;;;;;;1.42;77.24;97457.41;1565397;90;25556;-64
2021/12/01 04:48:31;;;;;;;;;;;;;;;1.44;77.26;97457.38;1565660;91;25638;-64
2021/12/01 04:50:57;;;;;;;;;;;;;;;1.45;77.27;97459.55;1565290;91;25827;-64
2021/12/01 04:53:25;;;;;;;;;;;;;;;1.48;77.14;97462.49;1565354;91;25540;-64
2021/12/01 04:55:53;;;;;;;;;;;;;;;1.50;77.20;97456.25;1565334;91;28424;-64
2021/12/01 04:58:19;;;;;;;;;;;;;;;1.51;77.25;97461.11;1565568;91;25810;-64
2021/12/01 05:00:45;;;;;;;;;;;;;;;1.53;77.36;97450.03;1565337;91;25501;-64
2021/12/01 05:03:11;;;;;;;;;;;;;;;1.56;77.26;97467.02;1565347;91;25765;-64
2021/12/01 05:05:38;;;;;;;;;;;;;;;1.56;77.30;97457.03;1565316;91;25717;-64
2021/12/01 05:08:04;;;;;;;;;;;;;;;1.58;77.32;97455.39;1565546;91;27426;-64
2021/12/01 05:10:31;;;;;;;;;;;;;;;1.58;77.23;97454.05;1565319;91;25701;-64
2021/12/01 05:12:57;;;;;;;;;;;;;;;1.59;77.34;97447.01;1565415;91;25506;-64
2021/12/01 05:15:23;;;;;;;;;;;;;;;1.59;77.38;97449.71;1565574;91;25793;-64
2021/12/01 05:17:52;;;;;;;;;;;;;;;1.62;77.35;97451.81;1565404;91;25518;-64
2021/12/01 05:20:18;;;;;;;;;;;;;;;1.63;77.23;97458.03;1565421;91;27531;-64
2021/12/01 05:22:44;;;;;;;;;;;;;;;1.64;77.33;97462.33;1565540;91;25818;-65
2021/12/01 05:25:11;;;;;;;;;;;;;;;1.64;77.30;97471.78;1565351;91;25536;-64
2021/12/01 05:27:37;;;;;;;;;;;;;;;1.66;77.23;97469.61;1565200;91;25691;-64
2021/12/01 05:30:05;;;;;;;;;;;;;;;1.69;77.20;97467.70;1565578;91;25496;-64
2021/12/01 05:32:32;;;;;;;;;;;;;;;1.75;77.32;97470.61;1565593;91;27485;-65
2021/12/01 05:34:58;;;;;;;;;;;;;;;1.77;77.09;97469.51;1565389;91;25647;-64
2021/12/01 05:37:25;;;;;;;;;;;;;;;1.80;77.12;97466.23;1565396;91;25702;-64
2021/12/01 05:39:51;;;;;;;;;;;;;;;1.83;77.24;97458.91;1565252;91;25759;-65
2021/12/01 05:42:17;;;;;;;;;;;;;;;1.84;77.21;97458.63;1565323;91;25480;-64
2021/12/01 05:44:44;;;;;;;;;;;;;;;1.84;77.37;97461.90;1565326;91;27452;-64
2021/12/01 05:47:10;;;;;;;;;;;;;;;1.82;77.36;97461.37;1565176;91;25742;-64
2021/12/01 05:49:42;;;;;;;;;;;;;;;1.80;77.50;97455.44;1565380;91;25501;-64
2021/12/01 05:52:10;;;;;;;;;;;;;;;1.80;77.69;97457.59;1565549;91;26300;-64
2021/12/01 05:54:36;;;;;;;;;;;;;;;1.82;77.57;97457.31;1564869;91;25568;-64
2021/12/01 05:57:03;;;;;;;;;;;;;;;1.80;77.54;97452.20;1565531;91;27565;-64
2021/12/01 05:59:29;;;;;;;;;;;;;;;1.82;77.52;97458.66;1565221;91;25656;-64
2021/12/01 06:01:55;;;;;;;;;;;;;;;1.83;77.54;97458.38;1565832;91;25614;-64
2021/12/01 06:04:24;;;;;;;;;;;;;;;1.82;77.55;97453.27;1565273;91;25790;-64
2021/12/01 06:06:51;;;;;;;;;;;;;;;1.81;77.43;97435.45;1565524;90;25721;-64
2021/12/01 06:09:17;;;;;;;;;;;;;;;1.82;77.33;97442.45;1565292;91;27485;-64
2021/12/01 06:11:46;;;;;;;;;;;;;;;1.82;77.41;97441.11;1565200;91;25800;-64
2021/12/01 06:14:12;;;;;;;;;;;;;;;1.82;77.63;97447.86;1557934;90;25705;-64
2021/12/01 06:16:39;;;;;;;;;;;;;;;1.81;77.73;97448.39;1565293;91;25845;-64
2021/12/01 06:19:05;;;;;;;;;;;;;;;1.83;77.83;97446.76;1565294;91;25524;-64
2021/12/01 06:21:31;;;;;;;;;;;;;;;1.82;77.76;97454.08;1565369;91;27497;-65
2021/12/01 06:23:57;;;;;;;;;;;;;;;1.82;77.76;97452.73;1565213;91;27221;-64
2021/12/01 06:26:23;;;;;;;;;;;;;;;1.84;77.69;97445.13;1565507;91;25681;-65
2021/12/01 06:28:51;;;;;;;;;;;;;;;1.86;77.56;97444.84;1565309;91;25783;-64
2021/12/01 06:31:17;;;;;;;;;;;;;;;1.88;77.60;97445.37;1565325;91;25713;-64
2021/12/01 06:33:43;;;;;;;;;;;;;;;1.92;77.54;97437.47;1565248;91;27525;-64
2021/12/01 06:36:09;;;;;;;;;;;;;;;1.91;77.06;97433.98;1565387;90;25628;-64
2021/12/01 06:38:38;;;;;;;;;;;;;;;1.90;76.95;97436.98;1565188;91;25840;-64
2021/12/01 06:41:05;;;;;;;;;;;;;;;1.89;77.07;97444.27;1565380;90;25665;-64
2021/12/01 06:43:31;;;;;;;;;;;;;;;1.89;77.20;97444.27;1565371;91;25616;-64
2021/12/01 06:45:58;;;;;;;;;;;;;;;1.87;77.18;97443.20;1565289;91;29619;-64
2021/12/01 06:48:24;;;;;;;;;;;;;;;1.82;77.04;97443.27;1565283;91;25491;-64
2021/12/01 06:50:50;;;;;;;;;;;;;;;1.79;77.14;97444.38;1565684;91;25621;-64
2021/12/01 06:53:17;;;;;;;;;;;;;;;1.78;77.19;97446.27;1565179;91;25782;-64
2021/12/01 06:55:43;;;;;;;;;;;;;;;1.75;77.19;97427.39;1565384;91;25646;-64
2021/12/01 06:58:10;;;;;;;;;;;;;;;1.74;77.05;97432.55;1565513;91;27446;-64
2021/12/01 07:00:37;;;;;;;;;;;;;;;1.74;77.05;97424.98;1565293;91;25721;-64
2021/12/01 07:03:03;;;;;;;;;;;;;;;1.73;77.00;97422.81;1565550;91;25532;-64
2021/12/01 07:05:29;;;;;;;;;;;;;;;1.72;76.90;97414.45;1565293;91;25772;-65
2021/12/01 07:07:56;;;;;;;;;;;;;;;1.73;76.75;97396.37;1565456;91;25477;-64
2021/12/01 07:10:23;;;;;;;;;;;;;;;1.71;76.86;97389.90;1565363;90;27504;-64
2021/12/01 07:12:49;;;;;;;;;;;;;;;1.73;76.79;97385.00;1565674;91;25726;-64
2021/12/01 07:15:15;;;;;;;;;;;;;;;1.72;76.58;97373.94;1565887;91;25706;-65
2021/12/01 07:17:42;;;;;;;;;;;;;;;1.70;76.51;97373.41;1565388;91;25738;-64
2021/12/01 07:20:10;;;;;;;;;;;;;;;1.76;76.75;97383.64;1565581;91;25451;-64
2021/12/01 07:22:37;;;;;;;;;;;;;;;1.77;76.41;97378.48;1565475;91;27445;-65
2021/12/01 07:25:05;;;;;;;;;;;;;;;1.81;76.47;97382.78;1565596;91;25652;-64
2021/12/01 07:27:31;;;;;;;;;;;;;;;1.82;76.38;97368.17;1565656;91;25492;-65
2021/12/01 07:29:58;;;;;;;;;;;;;;;1.85;76.45;97366.24;1565523;91;26249;-65
2021/12/01 07:32:24;;;;;;;;;;;;;;;1.84;76.49;97372.18;1565680;91;25610;-65
2021/12/01 07:34:51;;;;;;;;;;;;;;;1.83;76.63;97367.88;1565523;90;27797;-65
2021/12/01 07:37:19;;;;;;;;;;;;;;;1.82;76.57;97362.77;1576345;91;25586;-65
2021/12/01 07:39:46;;;;;;;;;;;;;;;1.84;76.72;97360.03;1576709;91;25452;-66
2021/12/01 07:42:14;;;;;;;;;;;;;;;1.84;76.97;97362.73;1576770;91;25840;-66
2021/12/01 07:44:41;;;;;;;;;;;;;;;1.90;76.83;97363.47;1576635;91;25728;-66
2021/12/01 07:47:08;;;;;;;;;;;;;;;2.03;76.60;97347.11;1576702;91;27620;-66
2021/12/01 07:49:36;;;;;;;;;;;;;;;2.16;76.25;97342.88;1576708;91;25671;-65
2021/12/01 07:52:05;;;;;;;;;;;;;;;2.25;75.93;97342.48;1576568;91;25499;-66
2021/12/01 07:54:32;;;;;;;;;;;;;;;2.36;75.51;97343.14;1576488;91;25810;-66
2021/12/01 07:56:59;;;;;;;;;;;;;;;2.43;75.07;97341.44;1576679;91;25470;-65
2021/12/01 07:59:25;;;;;;;;;;;;;;;2.45;74.98;97341.94;1576800;91;27442;-64
2021/12/01 08:01:52;;;;;;;;;;;;;;;2.42;74.90;97344.44;1576610;91;25479;-64
2021/12/01 08:04:18;;;;;;;;;;;;;;;2.38;74.96;97348.27;1576999;91;25637;-64
2021/12/01 08:06:45;;;;;;;;;;;;;;;2.31;74.78;97344.59;1576624;91;25907;-64
2021/12/01 08:09:12;;;;;;;;;;;;;;;2.36;75.50;97346.42;1576792;91;25658;-64
2021/12/01 08:11:40;;;;;;;;;;;;;;;2.37;75.27;97334.50;1576767;91;27451;-64
2021/12/01 08:14:07;;;;;;;;;;;;;;;2.46;75.80;97340.05;1576942;91;25554;-64
2021/12/01 08:16:37;;;;;;;;;;;;;;;2.55;75.48;97334.77;1576594;91;25453;-64
2021/12/01 08:19:05;;;;;;;;;;;;;;;2.62;75.32;97331.95;1576748;91;26010;-63
2021/12/01 08:21:32;;;;;;;;;;;;;;;2.67;75.43;97320.81;1577016;91;25625;-64
2021/12/01 08:23:59;;;;;;;;;;;;;;;2.70;75.51;97318.31;1576509;91;27450;-64
2021/12/01 08:26:26;;;;;;;;;;;;;;;2.67;75.20;97320.25;1576593;91;25762;-64
2021/12/01 08:28:53;;;;;;;;;;;;;;;2.67;75.67;97309.43;1576778;91;25765;-64
2021/12/01 08:31:21;;;;;;;;;;;;;;;2.83;75.65;97303.78;1576634;91;25987;-64
2021/12/01 08:33:48;;;;;;;;;;;;;;;3.08;75.58;97303.09;1576894;91;25746;-64
2021/12/01 08:36:15;;;;;;;;;;;;;;;3.31;74.98;97297.24;1572204;91;27499;-64
2021/12/01 08:38:43;;;;;;;;;;;;;;;3.53;74.33;97295.75;1565506;91;25707;-64
2021/12/01 08:41:10;;;;;;;;;;;;;;;3.75;74.48;97292.33;1565607;91;25471;-64
2021/12/01 08:43:37;;;;;;;;;;;;;;;3.96;73.80;97287.03;1565518;91;25797;-64
2021/12/01 08:46:05;;;;;;;;;;;;;;;4.05;73.71;97283.05;1565559;91;25507;-64
2021/12/01 08:48:32;;;;;;;;;;;;;;;4.07;73.08;97271.36;1565607;91;27394;-65
2021/12/01 08:51:01;;;;;;;;;;;;;;;4.16;73.63;97279.02;1565237;91;25576;-64
2021/12/01 08:53:28;;;;;;;;;;;;;;;4.17;73.20;97257.56;1565513;90;25764;-65
2021/12/01 08:55:57;;;;;;;;;;;;;;;4.21;72.52;97258.58;1565571;91;25690;-64
2021/12/01 08:58:23;;;;;;;;;;;;;;;4.20;73.33;97258.31;1565484;90;25724;-65
2021/12/01 09:00:50;;;;;;;;;;;;;;;4.27;73.72;97255.19;1565425;91;27464;-65
2021/12/01 09:03:18;;;;;;;;;;;;;;;4.29;73.16;97261.09;1565228;91;25587;-64
2021/12/01 09:05:46;;;;;;;;;;;;;;;4.33;73.50;97262.09;1565296;90;25483;-65
2021/12/01 09:08:15;;;;;;;;;;;;;;;4.39;73.47;97255.45;1565274;91;25704;-65
2021/12/01 09:10:42;;;;;;;;;;;;;;;4.52;73.99;97257.05;1565652;91;25486;-64
2021/12/01 09:13:09;;;;;;;;;;;;;;;4.62;73.56;97251.38;1565442;91;27441;-64
2021/12/01 09:15:35;;;;;;;;;;;;;;;4.74;73.13;97249.99;1565389;91;25712;-65
2021/12/01 09:18:02;;;;;;;;;;;;;;;4.87;72.39;97251.82;1565415;91;25640;-64
2021/12/01 09:20:29;;;;;;;;;;;;;;;4.88;71.85;97256.16;1565537;91;25840;-61
2021/12/01 09:22:56;;;;;;;;;;;;;;;4.85;71.46;97246.47;1565440;91;25714;-62
2021/12/01 09:25:23;;;;;;;;;;;;;;;4.72;71.61;97235.95;1565633;91;27729;-62
2021/12/01 09:27:50;;;;;;;;;;;;;;;4.69;73.13;97242.00;1565431;91;25672;-62
2021/12/01 09:30:17;;;;;;;;;;;;;;;4.66;73.17;97249.40;1565387;91;25495;-63
2021/12/01 09:32:45;;;;;;;;;;;;;;;4.61;72.95;97236.19;1565584;91;26433;-63
2021/12/01 09:35:13;;;;;;;;;;;;;;;4.59;73.10;97228.11;1565549;91;25736;-63
2021/12/01 09:37:40;;;;;;;;;;;;;;;4.61;73.06;97236.76;1565458;91;27359;-63
2021/12/01 09:40:13;;;;;;;;;;;;;;;4.62;73.09;97234.28;1565153;91;25643;-63
2021/12/01 09:42:42;;;;;;;;;;;;;;;4.64;73.04;97237.50;1565454;91;25638;-64
2021/12/01 09:45:09;;;;;;;;;;;;;;;4.61;72.93;97223.97;1565137;91;25771;-63
2021/12/01 09:47:35;;;;;;;;;;;;;;;4.62;73.01;97222.88;1565538;91;25512;-65
2021/12/01 09:50:04;;;;;;;;;;;;;;;4.61;73.24;97224.55;1565529;91;27689;-64
2021/12/01 09:52:30;;;;;;;;;;;;;;;4.54;72.85;97218.73;1565480;91;25289;-64
2021/12/01 09:54:57;;;;;;;;;;;;;;;4.48;73.09;97210.73;1565416;91;25633;-64
2021/12/01 09:57:23;;;;;;;;;;;;;;;4.50;73.59;97204.46;1565322;91;26285;-65
2021/12/01 09:59:50;;;;;;;;;;;;;;;4.53;73.45;97204.39;1565430;91;25477;-64
2021/12/01 10:02:17;;;;;;;;;;;;;;;4.51;73.51;97207.95;1565540;91;27630;-65
2021/12/01 10:04:45;;;;;;;;;;;;;;;4.56;73.82;97211.91;1565416;91;25705;-64
2021/12/01 10:07:17;;;;;;;;;;;;;;;4.51;73.22;97201.17;1565322;91;25451;-64
2021/12/01 10:09:46;;;;;;;;;;;;;;;4.48;73.64;97205.31;1565240;91;25823;-65
2021/12/01 10:12:14;;;;;;;;;;;;;;;4.46;74.20;97195.31;1565617;91;25727;-62
2021/12/01 10:14:45;;;;;;;;;;;;;;;4.40;74.35;97199.27;1565436;91;27881;-62
2021/12/01 10:17:12;;;;;;;;;;;;;;;4.28;74.61;97190.34;1564665;91;25540;-63
2021/12/01 10:19:38;;;;;;;;;;;;;;;4.23;75.46;97179.63;1565539;91;25621;-62
2021/12/01 10:22:10;;;;;;;;;;;;;;;4.20;76.19;97187.02;1565351;91;25807;-63
2021/12/01 10:24:39;;;;;;;;;;;;;;;4.10;76.79;97176.67;1565350;91;25500;-63
2021/12/01 10:27:11;;;;;;;;;;;;;;;4.04;77.06;97162.17;1565495;91;27434;-63
2021/12/01 10:29:44;;;;;;;;;;;;;;;4.04;77.57;97165.70;1564871;90;25503;-64
2021/12/01 10:32:13;;;;;;;;;;;;;;;4.00;77.63;97151.95;1564392;91;25538;-64
2021/12/01 10:34:44;;;;;;;;;;;;;;;4.02;78.19;97148.92;1565385;91;25719;-63
2021/12/01 10:37:14;;;;;;;;;;;;;;;4.06;78.32;97149.13;1565398;90;25693;-64
2021/12/01 10:39:44;;;;;;;;;;;;;;;4.05;78.34;97146.95;1565792;91;28216;-64
2021/12/01 10:42:15;;;;;;;;;;;;;;;4.06;78.39;97139.06;1565615;91;25820;-64
2021/12/01 10:44:57;;;;;;;;;;;;;;;4.10;78.38;97149.55;1565593;91;25717;-64
2021/12/01 10:47:24;;;;;;;;;;;;;;;4.10;78.54;97137.90;1561550;91;25740;-64
2021/12/01 10:49:51;;;;;;;;;;;;;;;3.99;78.98;97127.86;1565674;91;25738;-64
2021/12/01 10:52:36;;;;;;;;;;;;;;;3.97;79.08;97120.03;1565497;91;27825;-64
2021/12/01 10:55:20;;;;;;;;;;;;;;;3.98;79.67;97121.66;1565293;91;25564;-64
2021/12/01 10:57:49;;;;;;;;;;;;;;;4.00;79.40;97122.13;1565925;91;25677;-64
2021/12/01 11:00:31;;;;;;;;;;;;;;;4.00;79.49;97114.00;1565677;91;25763;-64
2021/12/01 11:03:15;;;;;;;;;;;;;;;3.95;79.87;97103.30;1565131;91;25502;-64
2021/12/01 11:05:47;;;;;;;;;;;;;;;3.87;80.07;97093.19;1565374;91;28335;-65
2021/12/01 11:08:25;;;;;;;;;;;;;;;3.84;80.65;97082.95;1565517;91;25729;-65
2021/12/01 11:10:57;;;;;;;;;;;;;;;3.83;80.99;97074.59;1565651;91;25483;-65
2021/12/01 11:13:24;;;;;;;;;;;;;;;3.79;81.11;97078.46;1565645;91;25775;-65
2021/12/01 11:15:53;;;;;;;;;;;;;;;3.78;81.72;97083.64;1568755;89;25777;-65
2021/12/01 11:18:25;;;;;;;;;;;;;;;3.83;81.24;97086.21;1597419;89;27404;-65
2021/12/01 11:21:00;;;;;;;;;;;;;;;3.87;81.59;97080.98;1597165;89;25498;-65
2021/12/01 11:23:33;;;;;;;;;;;;;;;3.86;81.38;97069.34;1592100;89;25666;-65
2021/12/01 11:26:06;;;;;;;;;;;;;;;3.82;81.99;97065.66;1591252;90;25803;-66
2021/12/01 11:28:48;;;;;;;;;;;;;;;3.79;82.10;97066.27;1591694;90;25456;-65
2021/12/01 11:31:23;;;;;;;;;;;;;;;3.79;81.85;97066.27;1591393;90;27638;-65
2021/12/01 11:33:55;;;;;;;;;;;;;;;3.79;82.72;97068.98;1564493;90;25881;-65
2021/12/01 11:36:22;;;;;;;;;;;;;;;3.80;82.63;97054.31;1567690;89;25832;-65
2021/12/01 11:39:12;;;;;;;;;;;;;;;3.81;82.62;97043.73;1584899;90;25769;-65
2021/12/01 11:41:45;;;;;;;;;;;;;;;3.84;82.57;97034.99;1589416;90;25683;-63
2021/12/01 11:44:09;;;;;;;;;;;;;;;3.88;82.77;97029.19;1587589;90;25998;-64
2021/12/01 11:46:36;;;;;;;;;;;;;;;3.92;83.04;97028.57;1589833;90;25847;-64
2021/12/01 11:49:08;;;;;;;;;;;;;;;3.94;82.89;97027.72;1589990;90;25746;-64
2021/12/01 11:51:46;;;;;;;;;;;;;;;3.95;83.04;97030.12;1590019;90;25822;-65
2021/12/01 11:54:21;;;;;;;;;;;;;;;3.97;82.83;97028.45;1589907;90;25714;-63
2021/12/01 11:56:53;;;;;;;;;;;;;;;3.96;83.11;97021.41;1590380;90;27366;-64
2021/12/01 11:59:31;;;;;;;;;;;;;;;3.97;83.05;97018.97;1593334;88;25630;-64
2021/12/01 12:02:07;;;;;;;;;;;;;;;3.97;83.11;97006.77;1599505;88;25918;-64
2021/12/01 12:04:46;;;;;;;;;;;;;;;3.99;83.43;97007.23;1597642;89;25797;-64
2021/12/01 12:07:28;;;;;;;;;;;;;;;3.99;83.20;96998.56;1600578;89;25764;-63
2021/12/01 12:10:07;;;;;;;;;;;;;;;4.03;83.39;97001.42;1600554;88;27480;-64
2021/12/01 12:12:49;;;;;;;;;;;;;;;4.05;83.36;96999.77;1601459;89;26119;-64
2021/12/01 12:15:37;;;;;;;;;;;;;;;4.08;83.67;96998.59;1601595;89;25637;-64
2021/12/01 12:18:05;;;;;;;;;;;;;;;4.08;83.60;96986.94;1601683;88;25778;-64
2021/12/01 12:20:42;;;;;;;;;;;;;;;4.05;83.85;96978.89;1601447;88;25510;-64
2021/12/01 12:23:04;;;;;;;;;;;;;;;4.06;83.62;96976.98;1602417;87;26847;-64
2021/12/01 12:25:42;;;;;;;;;;;;;;;4.06;84.03;96969.63;1601503;88;25628;-64
2021/12/01 12:28:30;;;;;;;;;;;;;;;4.07;84.07;96969.09;1601506;88;25698;-63
2021/12/01 12:30:59;;;;;;;;;;;;;;;4.09;84.00;96968.23;1601351;89;25876;-64
2021/12/01 12:33:34;;;;;;;;;;;;;;;4.08;84.21;96966.61;1601733;89;25685;-64
2021/12/01 12:36:04;;;;;;;;;;;;;;;4.11;83.97;96968.15;1601591;88;27479;-63
2021/12/01 12:38:31;;;;;;;;;;;;;;;4.14;84.00;96961.30;1601491;88;25759;-63
2021/12/01 12:41:13;;;;;;;;;;;;;;;4.16;84.09;96964.50;1610656;87;25503;-63
2021/12/01 12:43:42;;;;;;;;;;;;;;;4.18;84.39;96959.58;1615393;88;25802;-63
2021/12/01 12:46:19;;;;;;;;;;;;;;;4.18;84.50;96946.02;1615529;89;25779;-63
2021/12/01 12:48:50;;;;;;;;;;;;;;;4.17;84.32;96940.33;1615615;89;27711;-63
2021/12/01 12:51:31;;;;;;;;;;;;;;;4.15;84.63;96935.80;1615420;89;25714;-63
2021/12/01 12:54:05;;;;;;;;;;;;;;;4.17;84.59;96916.51;1615412;89;25459;-63
2021/12/01 12:56:38;;;;;;;;;;;;;;;4.19;84.33;96902.88;1615132;89;25798;-63
2021/12/01 12:59:31;;;;;;;;;;;;;;;4.22;84.25;96902.24;1615407;88;25610;-63
2021/12/01 13:02:17;;;;;;;;;;;;;;;4.25;84.05;96896.73;1615436;89;27580;-63
2021/12/01 13:04:59;;;;;;;;;;;;;;;4.25;84.26;96890.77;1615075;89;25709;-63
2021/12/01 13:07:51;;;;;;;;;;;;;;;4.26;84.18;96882.08;1615306;89;25682;-63
2021/12/01 13:10:37;;;;;;;;;;;;;;;4.26;84.54;96878.02;1614990;89;26637;-63